createdAt,value
2023-03-26T00:02:19.254Z,99.90
2023-03-26T00:07:23.261Z,99.90
2023-03-26T00:12:26.696Z,99.90
2023-03-26T00:17:30.265Z,99.90
2023-03-26T00:22:33.457Z,99.90
2023-03-26T00:27:36.792Z,99.90
2023-03-26T00:32:40.420Z,99.90
2023-03-26T00:37:46.425Z,99.90
2023-03-26T00:42:49.736Z,99.90
2023-03-26T00:47:53.042Z,99.90
2023-03-26T00:52:56.290Z,99.90
2023-03-26T00:57:59.674Z,99.90
2023-03-26T01:03:05.096Z,99.90
2023-03-26T01:08:27.286Z,99.90
2023-03-26T01:13:38.585Z,99.90
2023-03-26T01:18:41.834Z,99.90
2023-03-26T01:23:51.663Z,99.90
2023-03-26T01:28:59.200Z,99.90
2023-03-26T01:34:22.801Z,99.90
2023-03-26T01:39:43.055Z,99.90
2023-03-26T01:45:08.487Z,99.90
2023-03-26T01:50:12.476Z,99.90
2023-03-26T01:55:16.352Z,99.90
2023-03-26T02:00:38.272Z,99.90
2023-03-26T02:05:53.227Z,99.90
2023-03-26T02:10:59.451Z,99.90
2023-03-26T02:16:05.452Z,99.90
2023-03-26T02:21:20.629Z,99.90
2023-03-26T02:26:25.546Z,99.90
2023-03-26T02:31:29.000Z,99.90
2023-03-26T02:36:32.406Z,99.90
2023-03-26T02:41:35.989Z,99.90
2023-03-26T02:46:39.303Z,99.90
2023-03-26T02:51:42.739Z,99.90
2023-03-26T02:56:45.950Z,99.90
2023-03-26T03:01:49.210Z,99.90
2023-03-26T03:06:57.858Z,99.90
2023-03-26T03:12:01.181Z,99.90
2023-03-26T03:17:04.683Z,99.90
2023-03-26T03:22:07.831Z,99.90
2023-03-26T03:27:11.112Z,99.90
2023-03-26T03:32:14.422Z,99.90
2023-03-26T03:37:20.341Z,99.90
2023-03-26T03:42:23.679Z,99.90
2023-03-26T03:47:26.909Z,99.90
2023-03-26T03:52:30.155Z,99.90
2023-03-26T03:57:33.715Z,99.90
2023-03-26T04:02:37.168Z,99.90
2023-03-26T04:07:40.796Z,99.90
2023-03-26T04:12:44.309Z,99.90
2023-03-26T04:17:47.661Z,99.90
2023-03-26T04:22:51.434Z,99.90
2023-03-26T04:27:58.781Z,99.90
2023-03-26T04:33:06.821Z,99.90
2023-03-26T04:38:11.715Z,99.90
2023-03-26T04:43:18.310Z,99.90
2023-03-26T04:48:22.334Z,99.90
2023-03-26T04:53:25.687Z,99.90
2023-03-26T04:58:33.319Z,99.90
2023-03-26T05:03:39.634Z,99.90
2023-03-26T05:08:42.967Z,99.90
2023-03-26T05:13:47.479Z,99.90
2023-03-26T05:18:51.872Z,99.90
2023-03-26T05:23:55.180Z,99.90
2023-03-26T05:28:58.832Z,99.90
2023-03-26T05:34:02.769Z,99.90
2023-03-26T05:39:06.484Z,99.90
2023-03-26T05:44:10.413Z,99.90
2023-03-26T05:49:13.832Z,99.90
2023-03-26T05:54:17.395Z,99.90
2023-03-26T05:59:20.938Z,99.90
2023-03-26T06:04:24.333Z,99.90
2023-03-26T06:09:27.709Z,99.90
2023-03-26T06:14:31.283Z,99.90
2023-03-26T06:19:34.571Z,99.90
2023-03-26T06:24:41.451Z,99.90
2023-03-26T06:29:44.757Z,99.90
2023-03-26T06:34:47.999Z,99.90
2023-03-26T06:39:51.499Z,99.90
2023-03-26T06:44:54.883Z,99.90
2023-03-26T06:49:58.112Z,99.90
2023-03-26T06:55:01.444Z,99.90
2023-03-26T07:00:06.376Z,99.90
2023-03-26T07:05:09.967Z,99.90
2023-03-26T07:10:13.604Z,99.90
2023-03-26T07:15:18.625Z,99.90
2023-03-26T07:20:22.345Z,99.90
2023-03-26T07:25:26.116Z,99.90
2023-03-26T07:30:39.416Z,99.90
2023-03-26T07:35:56.046Z,99.90
2023-03-26T07:41:14.776Z,99.90
2023-03-26T07:46:24.805Z,99.90
2023-03-26T07:51:29.334Z,99.90
2023-03-26T07:57:12.318Z,99.90
2023-03-26T08:02:21.151Z,99.90
2023-03-26T08:07:54.974Z,99.90
2023-03-26T08:13:25.330Z,99.90
2023-03-26T08:18:39.416Z,99.90
2023-03-26T08:24:13.855Z,99.90
2023-03-26T08:29:52.172Z,99.90
2023-03-26T08:34:57.958Z,99.90
2023-03-26T08:40:01.618Z,99.90
2023-03-26T08:45:34.256Z,99.90
2023-03-26T08:51:05.541Z,99.90
2023-03-26T08:56:27.044Z,99.90
2023-03-26T09:01:42.823Z,99.90
2023-03-26T09:06:58.500Z,99.90
2023-03-26T09:12:20.720Z,99.90
2023-03-26T09:17:46.530Z,99.90
2023-03-26T09:22:52.868Z,99.90
2023-03-26T09:28:30.761Z,99.90
2023-03-26T09:33:48.812Z,99.90
2023-03-26T09:39:02.829Z,99.90
2023-03-26T09:44:21.659Z,99.90
2023-03-26T09:49:43.504Z,99.90
2023-03-26T09:55:11.368Z,99.90
2023-03-26T10:00:43.169Z,99.90
2023-03-26T10:06:10.185Z,99.90
2023-03-26T10:12:03.627Z,99.90
2023-03-26T10:17:07.188Z,99.90
2023-03-26T10:22:13.309Z,99.90
2023-03-26T10:27:34.853Z,99.90
2023-03-26T10:33:26.403Z,99.90
2023-03-26T10:39:09.879Z,99.90
2023-03-26T10:44:49.942Z,99.90
2023-03-26T10:50:23.343Z,99.90
2023-03-26T10:55:47.795Z,99.90
2023-03-26T11:01:29.835Z,99.90
2023-03-26T11:06:39.772Z,99.90
2023-03-26T11:11:56.924Z,99.90
2023-03-26T11:17:10.308Z,99.90
2023-03-26T11:22:42.987Z,99.90
2023-03-26T11:28:01.848Z,99.90
2023-03-26T11:33:10.505Z,99.90
2023-03-26T11:38:22.707Z,99.90
2023-03-26T11:43:35.612Z,99.90
2023-03-26T11:48:44.940Z,99.90
2023-03-26T11:53:49.209Z,99.90
2023-03-26T11:59:11.755Z,99.90
2023-03-26T12:04:17.471Z,99.90
2023-03-26T12:09:21.322Z,99.90
2023-03-26T12:27:48.374Z,99.90
2023-03-26T12:32:57.085Z,99.90
2023-03-26T12:38:24.845Z,99.90
2023-03-26T12:44:56.580Z,99.90
2023-03-26T12:49:12.291Z,99.90
2023-03-26T12:54:50.788Z,99.90
2023-03-26T13:00:24.380Z,99.90
2023-03-26T13:05:45.397Z,99.90
2023-03-26T13:11:13.621Z,99.90
2023-03-26T13:16:41.404Z,99.90
2023-03-26T13:22:21.736Z,99.90
2023-03-26T13:27:37.453Z,99.90
2023-03-26T13:32:41.692Z,99.90
2023-03-26T13:37:51.389Z,99.90
2023-03-26T13:43:41.552Z,99.90
2023-03-26T13:49:17.895Z,99.90
2023-03-26T13:54:24.556Z,99.90
2023-03-26T13:59:32.436Z,99.90
2023-03-26T14:04:48.238Z,99.90
2023-03-26T14:10:13.609Z,99.90
2023-03-26T14:15:29.224Z,99.90
2023-03-26T14:20:34.693Z,99.90
2023-03-26T14:26:07.238Z,99.90
2023-03-26T14:31:51.771Z,99.90
2023-03-26T14:37:27.912Z,99.90
2023-03-26T14:42:40.040Z,99.90
2023-03-26T14:48:26.942Z,99.90
2023-03-26T14:53:44.750Z,99.90
2023-03-26T14:59:35.665Z,99.90
2023-03-26T15:05:17.583Z,99.90
2023-03-26T15:10:35.473Z,98.40
2023-03-26T15:16:09.826Z,95.60
2023-03-26T15:21:37.752Z,93.70
2023-03-26T15:26:59.733Z,96.30
2023-03-26T15:32:34.742Z,97.80
2023-03-26T15:37:54.891Z,97.10
2023-03-26T15:43:23.215Z,97.30
2023-03-26T15:48:37.971Z,97.20
2023-03-26T15:54:05.217Z,97.40
2023-03-26T15:59:17.197Z,99.20
2023-03-26T16:04:52.046Z,99.90
2023-03-26T16:10:19.859Z,99.90
2023-03-26T16:15:35.290Z,99.90
2023-03-26T16:20:58.007Z,99.90
2023-03-26T16:26:14.290Z,99.10
2023-03-26T16:31:38.225Z,99.90
2023-03-26T16:36:48.551Z,99.90
2023-03-26T16:42:06.248Z,99.90
2023-03-26T16:47:52.710Z,99.90
2023-03-26T16:53:02.931Z,99.90
2023-03-26T16:58:30.493Z,99.90
2023-03-26T17:03:48.608Z,99.90
2023-03-26T17:09:05.575Z,99.90
2023-03-26T17:14:14.321Z,99.90
2023-03-26T17:19:45.686Z,99.90
2023-03-26T17:24:59.531Z,99.90
2023-03-26T17:30:32.710Z,99.90
2023-03-26T17:35:47.669Z,99.90
2023-03-26T17:41:01.643Z,99.90
2023-03-26T17:46:32.776Z,99.90
2023-03-26T17:51:58.762Z,99.90
2023-03-26T17:57:14.601Z,99.90
2023-03-26T18:02:29.839Z,99.90
2023-03-26T18:07:47.115Z,99.90
2023-03-26T18:13:38.924Z,99.90
2023-03-26T18:19:05.044Z,99.90
2023-03-26T18:24:17.406Z,99.90
2023-03-26T18:29:27.032Z,99.90
2023-03-26T18:34:34.311Z,99.90
2023-03-26T18:39:44.716Z,99.90
2023-03-26T18:44:59.699Z,99.90
2023-03-26T18:50:08.706Z,99.90
2023-03-26T18:55:17.789Z,99.90
2023-03-26T19:05:50.108Z,99.90
2023-03-26T19:10:56.358Z,99.90
2023-03-26T19:16:08.993Z,99.90
2023-03-26T19:21:16.932Z,99.90
2023-03-26T19:26:23.444Z,99.90
2023-03-26T19:31:39.128Z,99.90
2023-03-26T19:37:01.941Z,99.90
2023-03-26T19:42:08.026Z,99.90
2023-03-26T19:47:39.108Z,99.90
2023-03-26T19:53:25.292Z,99.90
2023-03-26T19:58:30.385Z,99.90
2023-03-26T20:03:44.587Z,99.90
2023-03-26T20:08:51.478Z,99.90
2023-03-26T20:13:59.474Z,99.90
2023-03-26T20:19:04.942Z,99.90
2023-03-26T20:24:26.859Z,99.90
2023-03-26T20:29:33.254Z,99.90
2023-03-26T20:34:37.514Z,99.90
2023-03-26T20:39:42.324Z,99.90
2023-03-26T20:44:45.862Z,99.90
2023-03-26T20:49:49.831Z,99.90
2023-03-26T20:54:53.923Z,99.90
2023-03-26T20:59:57.622Z,99.90
2023-03-26T21:05:02.009Z,99.90
2023-03-26T21:10:06.678Z,99.90
2023-03-26T21:15:20.854Z,99.90
2023-03-26T21:20:33.160Z,99.90
2023-03-26T21:25:56.837Z,99.90
2023-03-26T21:31:00.656Z,99.90
2023-03-26T21:36:04.824Z,99.90
2023-03-26T21:41:08.537Z,99.90
2023-03-26T21:46:12.746Z,99.90
2023-03-26T21:51:19.452Z,99.90
2023-03-26T21:56:47.772Z,99.90
2023-03-26T22:02:03.130Z,99.90
2023-03-26T22:07:06.306Z,99.90
2023-03-26T22:12:11.075Z,99.90
2023-03-26T22:17:14.507Z,99.90
2023-03-26T22:22:17.923Z,99.90
2023-03-26T22:27:21.456Z,99.90
2023-03-26T22:32:24.814Z,99.90
2023-03-26T22:37:37.669Z,99.90
2023-03-26T22:42:41.754Z,99.90
2023-03-26T22:47:45.332Z,99.90
2023-03-26T22:52:49.037Z,99.90
2023-03-26T22:57:53.650Z,99.90
2023-03-26T23:03:01.042Z,99.90
2023-03-26T23:08:04.618Z,99.90
2023-03-26T23:13:08.109Z,99.90
2023-03-26T23:18:12.178Z,99.90
2023-03-26T23:23:15.419Z,99.90
2023-03-26T23:28:21.203Z,99.90
2023-03-26T23:33:30.548Z,99.90
2023-03-26T23:38:43.870Z,99.90
2023-03-26T23:43:55.764Z,99.90
2023-03-26T23:49:05.713Z,99.90
2023-03-26T23:54:09.404Z,99.90
2023-03-26T23:59:12.823Z,99.90
